sensor_id;sensor_type;location;lat;lon;timestamp;P1;durP1;ratioP1;P2;durP2;ratioP2
20080;SDS011;10200;49.232;9.222;2023-02-21T00:01:14;6.67;;;4.83;;
20080;SDS011;10200;49.232;9.222;2023-02-21T00:03:58;9.90;;;5.27;;
20080;SDS011;10200;49.232;9.222;2023-02-21T00:06:45;10.20;;;5.73;;
20080;SDS011;10200;49.232;9.222;2023-02-21T00:09:29;10.90;;;5.77;;
20080;SDS011;10200;49.232;9.222;2023-02-21T00:12:13;12.37;;;5.30;;
20080;SDS011;10200;49.232;9.222;2023-02-21T00:14:57;8.87;;;5.20;;
20080;SDS011;10200;49.232;9.222;2023-02-21T00:17:41;12.00;;;5.30;;
20080;SDS011;10200;49.232;9.222;2023-02-21T00:20:26;9.43;;;5.67;;
20080;SDS011;10200;49.232;9.222;2023-02-21T00:23:10;10.53;;;5.60;;
20080;SDS011;10200;49.232;9.222;2023-02-21T00:25:54;8.70;;;5.17;;
20080;SDS011;10200;49.232;9.222;2023-02-21T00:28:38;11.63;;;6.03;;
20080;SDS011;10200;49.232;9.222;2023-02-21T00:31:22;11.00;;;6.17;;
20080;SDS011;10200;49.232;9.222;2023-02-21T00:34:06;8.90;;;4.93;;
20080;SDS011;10200;49.232;9.222;2023-02-21T00:36:51;16.10;;;6.30;;
20080;SDS011;10200;49.232;9.222;2023-02-21T00:39:36;8.47;;;4.30;;
20080;SDS011;10200;49.232;9.222;2023-02-21T00:42:22;7.17;;;4.90;;
20080;SDS011;10200;49.232;9.222;2023-02-21T00:45:06;8.73;;;4.60;;
20080;SDS011;10200;49.232;9.222;2023-02-21T00:47:50;10.97;;;5.73;;
20080;SDS011;10200;49.232;9.222;2023-02-21T00:50:35;13.33;;;6.00;;
20080;SDS011;10200;49.232;9.222;2023-02-21T00:53:19;8.40;;;5.30;;
20080;SDS011;10200;49.232;9.222;2023-02-21T00:56:06;9.47;;;5.10;;
20080;SDS011;10200;49.232;9.222;2023-02-21T00:58:50;11.80;;;5.20;;
20080;SDS011;10200;49.232;9.222;2023-02-21T01:01:34;10.33;;;5.27;;
20080;SDS011;10200;49.232;9.222;2023-02-21T01:04:18;6.90;;;4.23;;
20080;SDS011;10200;49.232;9.222;2023-02-21T01:07:02;5.53;;;4.13;;
20080;SDS011;10200;49.232;9.222;2023-02-21T01:09:46;6.50;;;3.80;;
20080;SDS011;10200;49.232;9.222;2023-02-21T01:12:31;9.93;;;4.90;;
20080;SDS011;10200;49.232;9.222;2023-02-21T01:15:15;9.23;;;4.57;;
20080;SDS011;10200;49.232;9.222;2023-02-21T01:17:59;7.20;;;4.60;;
20080;SDS011;10200;49.232;9.222;2023-02-21T01:20:43;8.00;;;4.87;;
20080;SDS011;10200;49.232;9.222;2023-02-21T01:23:27;10.30;;;5.40;;
20080;SDS011;10200;49.232;9.222;2023-02-21T01:26:12;9.53;;;4.97;;
20080;SDS011;10200;49.232;9.222;2023-02-21T01:28:56;10.10;;;5.17;;
20080;SDS011;10200;49.232;9.222;2023-02-21T01:31:40;9.30;;;4.97;;
20080;SDS011;10200;49.232;9.222;2023-02-21T01:34:24;9.47;;;5.23;;
20080;SDS011;10200;49.232;9.222;2023-02-21T01:37:08;9.43;;;5.20;;
20080;SDS011;10200;49.232;9.222;2023-02-21T01:39:53;12.93;;;4.70;;
20080;SDS011;10200;49.232;9.222;2023-02-21T01:42:37;8.40;;;4.47;;
20080;SDS011;10200;49.232;9.222;2023-02-21T01:48:06;7.07;;;4.53;;
20080;SDS011;10200;49.232;9.222;2023-02-21T01:50:54;6.93;;;4.37;;
20080;SDS011;10200;49.232;9.222;2023-02-21T01:53:40;15.40;;;6.13;;
20080;SDS011;10200;49.232;9.222;2023-02-21T01:56:25;11.83;;;6.77;;
20080;SDS011;10200;49.232;9.222;2023-02-21T01:59:09;17.33;;;8.47;;
20080;SDS011;10200;49.232;9.222;2023-02-21T02:02:01;16.17;;;7.70;;
20080;SDS011;10200;49.232;9.222;2023-02-21T02:04:48;14.17;;;6.97;;
20080;SDS011;10200;49.232;9.222;2023-02-21T02:07:33;12.17;;;6.53;;
20080;SDS011;10200;49.232;9.222;2023-02-21T02:10:18;11.37;;;6.00;;
20080;SDS011;10200;49.232;9.222;2023-02-21T02:15:40;12.30;;;5.97;;
20080;SDS011;10200;49.232;9.222;2023-02-21T02:23:33;10.47;;;6.20;;
20080;SDS011;10200;49.232;9.222;2023-02-21T02:47:49;8.23;;;4.87;;
20080;SDS011;10200;49.232;9.222;2023-02-21T02:50:19;8.03;;;5.33;;
20080;SDS011;10200;49.232;9.222;2023-02-21T02:52:53;8.63;;;4.70;;
20080;SDS011;10200;49.232;9.222;2023-02-21T02:58:08;7.77;;;4.87;;
20080;SDS011;10200;49.232;9.222;2023-02-21T03:00:35;10.20;;;5.30;;
20080;SDS011;10200;49.232;9.222;2023-02-21T03:03:12;7.07;;;5.03;;
20080;SDS011;10200;49.232;9.222;2023-02-21T03:05:53;9.37;;;5.60;;
20080;SDS011;10200;49.232;9.222;2023-02-21T03:13:48;11.73;;;5.67;;
20080;SDS011;10200;49.232;9.222;2023-02-21T03:16:27;6.83;;;4.90;;
20080;SDS011;10200;49.232;9.222;2023-02-21T03:19:07;11.43;;;6.27;;
20080;SDS011;10200;49.232;9.222;2023-02-21T03:21:48;9.73;;;6.30;;
20080;SDS011;10200;49.232;9.222;2023-02-21T03:24:17;9.10;;;5.47;;
20080;SDS011;10200;49.232;9.222;2023-02-21T03:26:46;9.07;;;5.60;;
20080;SDS011;10200;49.232;9.222;2023-02-21T03:29:14;10.30;;;5.93;;
20080;SDS011;10200;49.232;9.222;2023-02-21T03:31:46;11.50;;;5.97;;
20080;SDS011;10200;49.232;9.222;2023-02-21T03:34:18;9.13;;;5.53;;
20080;SDS011;10200;49.232;9.222;2023-02-21T03:36:43;8.47;;;5.03;;
20080;SDS011;10200;49.232;9.222;2023-02-21T03:39:10;10.70;;;5.20;;
20080;SDS011;10200;49.232;9.222;2023-02-21T03:41:35;5.33;;;4.60;;
20080;SDS011;10200;49.232;9.222;2023-02-21T03:44:01;8.00;;;4.77;;
20080;SDS011;10200;49.232;9.222;2023-02-21T03:46:26;8.57;;;5.30;;
20080;SDS011;10200;49.232;9.222;2023-02-21T03:48:52;7.43;;;5.30;;
20080;SDS011;10200;49.232;9.222;2023-02-21T03:51:18;8.27;;;5.07;;
20080;SDS011;10200;49.232;9.222;2023-02-21T03:53:43;7.67;;;4.20;;
20080;SDS011;10200;49.232;9.222;2023-02-21T03:56:09;8.80;;;5.17;;
20080;SDS011;10200;49.232;9.222;2023-02-21T03:58:34;8.20;;;4.70;;
20080;SDS011;10200;49.232;9.222;2023-02-21T04:01:00;5.57;;;4.47;;
20080;SDS011;10200;49.232;9.222;2023-02-21T04:03:25;8.50;;;4.87;;
20080;SDS011;10200;49.232;9.222;2023-02-21T04:05:51;10.53;;;4.80;;
20080;SDS011;10200;49.232;9.222;2023-02-21T04:08:17;6.50;;;4.27;;
20080;SDS011;10200;49.232;9.222;2023-02-21T04:10:42;9.23;;;5.63;;
20080;SDS011;10200;49.232;9.222;2023-02-21T04:13:08;12.80;;;5.60;;
20080;SDS011;10200;49.232;9.222;2023-02-21T04:15:34;7.80;;;4.87;;
20080;SDS011;10200;49.232;9.222;2023-02-21T04:17:59;8.77;;;5.10;;
20080;SDS011;10200;49.232;9.222;2023-02-21T04:20:25;7.33;;;4.17;;
20080;SDS011;10200;49.232;9.222;2023-02-21T04:22:51;8.60;;;4.53;;
20080;SDS011;10200;49.232;9.222;2023-02-21T04:25:16;9.90;;;5.30;;
20080;SDS011;10200;49.232;9.222;2023-02-21T04:27:42;8.80;;;4.90;;
20080;SDS011;10200;49.232;9.222;2023-02-21T04:30:08;8.70;;;5.20;;
20080;SDS011;10200;49.232;9.222;2023-02-21T04:32:34;7.53;;;5.07;;
20080;SDS011;10200;49.232;9.222;2023-02-21T04:34:59;8.63;;;4.53;;
20080;SDS011;10200;49.232;9.222;2023-02-21T04:37:25;10.00;;;5.53;;
20080;SDS011;10200;49.232;9.222;2023-02-21T04:39:50;8.17;;;5.03;;
20080;SDS011;10200;49.232;9.222;2023-02-21T04:42:16;6.83;;;4.47;;
20080;SDS011;10200;49.232;9.222;2023-02-21T04:44:42;7.33;;;4.40;;
20080;SDS011;10200;49.232;9.222;2023-02-21T04:47:07;6.67;;;4.33;;
20080;SDS011;10200;49.232;9.222;2023-02-21T04:49:33;6.63;;;4.43;;
20080;SDS011;10200;49.232;9.222;2023-02-21T04:51:58;6.80;;;4.70;;
20080;SDS011;10200;49.232;9.222;2023-02-21T04:54:24;6.23;;;4.03;;
20080;SDS011;10200;49.232;9.222;2023-02-21T04:56:50;6.70;;;3.80;;
20080;SDS011;10200;49.232;9.222;2023-02-21T04:59:15;6.03;;;4.23;;
20080;SDS011;10200;49.232;9.222;2023-02-21T05:01:41;7.53;;;4.57;;
20080;SDS011;10200;49.232;9.222;2023-02-21T05:04:06;9.90;;;5.50;;
20080;SDS011;10200;49.232;9.222;2023-02-21T05:06:32;5.63;;;4.37;;
20080;SDS011;10200;49.232;9.222;2023-02-21T05:08:58;6.47;;;4.60;;
20080;SDS011;10200;49.232;9.222;2023-02-21T05:11:24;7.93;;;5.20;;
20080;SDS011;10200;49.232;9.222;2023-02-21T05:13:50;8.30;;;4.37;;
20080;SDS011;10200;49.232;9.222;2023-02-21T05:16:16;9.70;;;4.90;;
20080;SDS011;10200;49.232;9.222;2023-02-21T05:18:43;9.80;;;5.07;;
20080;SDS011;10200;49.232;9.222;2023-02-21T05:21:10;8.47;;;4.87;;
20080;SDS011;10200;49.232;9.222;2023-02-21T05:23:37;9.90;;;4.53;;
20080;SDS011;10200;49.232;9.222;2023-02-21T05:26:05;8.23;;;4.73;;
20080;SDS011;10200;49.232;9.222;2023-02-21T05:28:32;8.80;;;5.30;;
20080;SDS011;10200;49.232;9.222;2023-02-21T05:30:58;7.13;;;4.80;;
20080;SDS011;10200;49.232;9.222;2023-02-21T05:33:24;7.43;;;4.30;;
20080;SDS011;10200;49.232;9.222;2023-02-21T05:35:50;7.87;;;4.37;;
20080;SDS011;10200;49.232;9.222;2023-02-21T05:38:19;7.50;;;4.93;;
20080;SDS011;10200;49.232;9.222;2023-02-21T05:40:46;6.57;;;4.90;;
20080;SDS011;10200;49.232;9.222;2023-02-21T05:43:11;6.47;;;3.87;;
20080;SDS011;10200;49.232;9.222;2023-02-21T05:45:37;7.30;;;4.57;;
20080;SDS011;10200;49.232;9.222;2023-02-21T05:48:03;6.83;;;4.40;;
20080;SDS011;10200;49.232;9.222;2023-02-21T05:50:29;7.03;;;4.00;;
20080;SDS011;10200;49.232;9.222;2023-02-21T05:52:55;9.57;;;4.77;;
20080;SDS011;10200;49.232;9.222;2023-02-21T05:55:22;7.77;;;4.47;;
20080;SDS011;10200;49.232;9.222;2023-02-21T05:57:48;8.23;;;4.03;;
20080;SDS011;10200;49.232;9.222;2023-02-21T06:00:17;8.47;;;4.33;;
20080;SDS011;10200;49.232;9.222;2023-02-21T06:02:45;5.40;;;4.10;;
20080;SDS011;10200;49.232;9.222;2023-02-21T06:05:10;6.63;;;4.73;;
20080;SDS011;10200;49.232;9.222;2023-02-21T06:07:37;7.53;;;5.40;;
20080;SDS011;10200;49.232;9.222;2023-02-21T06:10:03;7.00;;;4.03;;
20080;SDS011;10200;49.232;9.222;2023-02-21T06:12:29;7.07;;;4.40;;
20080;SDS011;10200;49.232;9.222;2023-02-21T06:14:55;7.33;;;4.67;;
20080;SDS011;10200;49.232;9.222;2023-02-21T06:17:20;8.47;;;5.00;;
20080;SDS011;10200;49.232;9.222;2023-02-21T06:19:46;11.47;;;4.97;;
20080;SDS011;10200;49.232;9.222;2023-02-21T06:22:11;8.30;;;4.70;;
20080;SDS011;10200;49.232;9.222;2023-02-21T06:24:37;14.47;;;4.90;;
20080;SDS011;10200;49.232;9.222;2023-02-21T06:27:03;7.50;;;4.57;;
20080;SDS011;10200;49.232;9.222;2023-02-21T06:29:29;7.57;;;4.57;;
20080;SDS011;10200;49.232;9.222;2023-02-21T06:31:55;8.13;;;4.93;;
20080;SDS011;10200;49.232;9.222;2023-02-21T06:34:25;9.10;;;5.40;;
20080;SDS011;10200;49.232;9.222;2023-02-21T06:36:52;9.67;;;5.17;;
20080;SDS011;10200;49.232;9.222;2023-02-21T06:39:19;8.20;;;5.00;;
20080;SDS011;10200;49.232;9.222;2023-02-21T06:41:45;7.37;;;4.97;;
20080;SDS011;10200;49.232;9.222;2023-02-21T06:44:10;7.70;;;4.00;;
20080;SDS011;10200;49.232;9.222;2023-02-21T06:46:36;9.40;;;4.40;;
20080;SDS011;10200;49.232;9.222;2023-02-21T06:49:03;7.00;;;4.50;;
20080;SDS011;10200;49.232;9.222;2023-02-21T06:51:33;7.60;;;4.67;;
20080;SDS011;10200;49.232;9.222;2023-02-21T06:54:02;7.83;;;4.80;;
20080;SDS011;10200;49.232;9.222;2023-02-21T06:56:28;11.90;;;5.00;;
20080;SDS011;10200;49.232;9.222;2023-02-21T06:58:54;11.13;;;5.97;;
20080;SDS011;10200;49.232;9.222;2023-02-21T07:01:20;11.17;;;7.10;;
20080;SDS011;10200;49.232;9.222;2023-02-21T07:03:47;10.37;;;5.93;;
20080;SDS011;10200;49.232;9.222;2023-02-21T07:06:13;8.13;;;6.10;;
20080;SDS011;10200;49.232;9.222;2023-02-21T07:08:39;11.57;;;6.33;;
20080;SDS011;10200;49.232;9.222;2023-02-21T07:11:05;11.50;;;5.80;;
20080;SDS011;10200;49.232;9.222;2023-02-21T07:13:31;9.70;;;5.73;;
20080;SDS011;10200;49.232;9.222;2023-02-21T07:15:57;9.30;;;5.73;;
20080;SDS011;10200;49.232;9.222;2023-02-21T07:18:23;8.83;;;6.30;;
20080;SDS011;10200;49.232;9.222;2023-02-21T07:20:49;9.33;;;5.83;;
20080;SDS011;10200;49.232;9.222;2023-02-21T07:23:15;7.60;;;5.43;;
20080;SDS011;10200;49.232;9.222;2023-02-21T07:25:40;7.80;;;5.47;;
20080;SDS011;10200;49.232;9.222;2023-02-21T07:28:06;9.87;;;5.80;;
20080;SDS011;10200;49.232;9.222;2023-02-21T07:30:32;10.07;;;6.70;;
20080;SDS011;10200;49.232;9.222;2023-02-21T07:32:58;10.43;;;5.93;;
20080;SDS011;10200;49.232;9.222;2023-02-21T07:35:24;10.67;;;6.17;;
20080;SDS011;10200;49.232;9.222;2023-02-21T07:37:50;8.53;;;6.07;;
20080;SDS011;10200;49.232;9.222;2023-02-21T07:40:15;7.40;;;5.10;;
20080;SDS011;10200;49.232;9.222;2023-02-21T07:42:41;9.40;;;5.63;;
20080;SDS011;10200;49.232;9.222;2023-02-21T07:45:08;9.07;;;5.33;;
20080;SDS011;10200;49.232;9.222;2023-02-21T07:47:35;7.27;;;4.80;;
20080;SDS011;10200;49.232;9.222;2023-02-21T07:50:01;10.87;;;5.73;;
20080;SDS011;10200;49.232;9.222;2023-02-21T07:52:26;8.27;;;4.53;;
20080;SDS011;10200;49.232;9.222;2023-02-21T07:54:52;8.23;;;4.87;;
20080;SDS011;10200;49.232;9.222;2023-02-21T07:57:17;9.80;;;6.37;;
20080;SDS011;10200;49.232;9.222;2023-02-21T07:59:43;8.43;;;5.40;;
20080;SDS011;10200;49.232;9.222;2023-02-21T08:02:12;8.43;;;5.43;;
20080;SDS011;10200;49.232;9.222;2023-02-21T08:04:38;8.43;;;5.43;;
20080;SDS011;10200;49.232;9.222;2023-02-21T08:07:05;9.73;;;4.67;;
20080;SDS011;10200;49.232;9.222;2023-02-21T08:09:31;11.87;;;5.33;;
20080;SDS011;10200;49.232;9.222;2023-02-21T08:11:57;10.17;;;5.50;;
20080;SDS011;10200;49.232;9.222;2023-02-21T08:14:22;11.33;;;4.63;;
20080;SDS011;10200;49.232;9.222;2023-02-21T08:16:48;10.33;;;5.50;;
20080;SDS011;10200;49.232;9.222;2023-02-21T08:19:14;9.57;;;5.23;;
20080;SDS011;10200;49.232;9.222;2023-02-21T08:21:49;7.67;;;5.03;;
20080;SDS011;10200;49.232;9.222;2023-02-21T08:24:15;7.90;;;5.60;;
20080;SDS011;10200;49.232;9.222;2023-02-21T08:26:41;7.07;;;4.63;;
20080;SDS011;10200;49.232;9.222;2023-02-21T08:29:09;9.17;;;5.23;;
20080;SDS011;10200;49.232;9.222;2023-02-21T08:31:39;6.90;;;4.50;;
20080;SDS011;10200;49.232;9.222;2023-02-21T08:34:06;8.13;;;5.20;;
20080;SDS011;10200;49.232;9.222;2023-02-21T08:36:36;9.43;;;4.93;;
20080;SDS011;10200;49.232;9.222;2023-02-21T08:39:03;9.43;;;4.83;;
20080;SDS011;10200;49.232;9.222;2023-02-21T08:41:45;10.70;;;5.10;;
20080;SDS011;10200;49.232;9.222;2023-02-21T08:44:13;7.90;;;4.60;;
20080;SDS011;10200;49.232;9.222;2023-02-21T08:46:40;7.63;;;5.27;;
20080;SDS011;10200;49.232;9.222;2023-02-21T08:49:06;5.67;;;4.00;;
20080;SDS011;10200;49.232;9.222;2023-02-21T08:51:33;9.03;;;5.13;;
20080;SDS011;10200;49.232;9.222;2023-02-21T08:53:59;8.73;;;5.50;;
20080;SDS011;10200;49.232;9.222;2023-02-21T08:56:26;11.60;;;5.07;;
20080;SDS011;10200;49.232;9.222;2023-02-21T08:58:52;12.97;;;5.67;;
20080;SDS011;10200;49.232;9.222;2023-02-21T09:01:19;8.10;;;5.23;;
20080;SDS011;10200;49.232;9.222;2023-02-21T09:03:45;8.83;;;6.00;;
20080;SDS011;10200;49.232;9.222;2023-02-21T09:06:11;7.93;;;5.10;;
20080;SDS011;10200;49.232;9.222;2023-02-21T09:08:36;13.60;;;5.77;;
20080;SDS011;10200;49.232;9.222;2023-02-21T09:11:03;8.93;;;4.97;;
20080;SDS011;10200;49.232;9.222;2023-02-21T09:13:29;9.10;;;5.67;;
20080;SDS011;10200;49.232;9.222;2023-02-21T09:15:56;12.03;;;6.13;;
20080;SDS011;10200;49.232;9.222;2023-02-21T09:18:23;9.43;;;5.47;;
20080;SDS011;10200;49.232;9.222;2023-02-21T09:20:48;9.83;;;5.93;;
20080;SDS011;10200;49.232;9.222;2023-02-21T09:23:19;9.13;;;5.73;;
20080;SDS011;10200;49.232;9.222;2023-02-21T09:25:49;8.63;;;5.30;;
20080;SDS011;10200;49.232;9.222;2023-02-21T09:28:15;10.97;;;5.63;;
20080;SDS011;10200;49.232;9.222;2023-02-21T09:30:42;12.73;;;6.13;;
20080;SDS011;10200;49.232;9.222;2023-02-21T09:33:08;15.63;;;6.80;;
20080;SDS011;10200;49.232;9.222;2023-02-21T09:35:34;14.90;;;7.00;;
20080;SDS011;10200;49.232;9.222;2023-02-21T09:38:00;30.20;;;7.67;;
20080;SDS011;10200;49.232;9.222;2023-02-21T09:40:42;13.07;;;7.10;;
20080;SDS011;10200;49.232;9.222;2023-02-21T09:43:27;16.43;;;6.80;;
20080;SDS011;10200;49.232;9.222;2023-02-21T09:45:58;16.77;;;7.30;;
20080;SDS011;10200;49.232;9.222;2023-02-21T09:48:26;12.60;;;7.00;;
20080;SDS011;10200;49.232;9.222;2023-02-21T09:51:03;12.50;;;6.10;;
20080;SDS011;10200;49.232;9.222;2023-02-21T09:53:32;13.97;;;5.93;;
20080;SDS011;10200;49.232;9.222;2023-02-21T09:56:07;16.10;;;5.40;;
20080;SDS011;10200;49.232;9.222;2023-02-21T09:58:44;7.30;;;4.90;;
20080;SDS011;10200;49.232;9.222;2023-02-21T10:01:24;7.87;;;4.93;;
20080;SDS011;10200;49.232;9.222;2023-02-21T10:06:38;9.43;;;5.70;;
20080;SDS011;10200;49.232;9.222;2023-02-21T10:09:17;9.40;;;4.80;;
20080;SDS011;10200;49.232;9.222;2023-02-21T10:17:33;11.80;;;5.57;;
20080;SDS011;10200;49.232;9.222;2023-02-21T10:20:26;12.80;;;6.63;;
20080;SDS011;10200;49.232;9.222;2023-02-21T10:22:52;9.17;;;5.87;;
20080;SDS011;10200;49.232;9.222;2023-02-21T10:27:54;9.70;;;5.83;;
20080;SDS011;10200;49.232;9.222;2023-02-21T10:30:26;12.80;;;6.20;;
20080;SDS011;10200;49.232;9.222;2023-02-21T10:32:56;12.47;;;7.00;;
20080;SDS011;10200;49.232;9.222;2023-02-21T10:35:22;11.50;;;6.13;;
20080;SDS011;10200;49.232;9.222;2023-02-21T10:37:50;12.37;;;6.07;;
20080;SDS011;10200;49.232;9.222;2023-02-21T10:45:46;9.10;;;5.97;;
20080;SDS011;10200;49.232;9.222;2023-02-21T10:48:26;10.43;;;6.83;;
20080;SDS011;10200;49.232;9.222;2023-02-21T10:53:32;10.53;;;5.40;;
20080;SDS011;10200;49.232;9.222;2023-02-21T10:58:47;9.40;;;5.70;;
20080;SDS011;10200;49.232;9.222;2023-02-21T11:03:42;13.30;;;6.20;;
20080;SDS011;10200;49.232;9.222;2023-02-21T11:12:24;9.20;;;5.73;;
20080;SDS011;10200;49.232;9.222;2023-02-21T11:17:17;8.63;;;5.30;;
20080;SDS011;10200;49.232;9.222;2023-02-21T11:19:56;8.70;;;5.10;;
20080;SDS011;10200;49.232;9.222;2023-02-21T11:30:37;13.00;;;6.10;;
20080;SDS011;10200;49.232;9.222;2023-02-21T11:33:24;8.10;;;5.27;;
20080;SDS011;10200;49.232;9.222;2023-02-21T11:35:51;9.40;;;6.30;;
20080;SDS011;10200;49.232;9.222;2023-02-21T11:43:59;13.20;;;5.87;;
20080;SDS011;10200;49.232;9.222;2023-02-21T11:46:38;8.57;;;4.97;;
20080;SDS011;10200;49.232;9.222;2023-02-21T11:49:19;7.53;;;4.80;;
20080;SDS011;10200;49.232;9.222;2023-02-21T11:51:58;7.43;;;4.90;;
20080;SDS011;10200;49.232;9.222;2023-02-21T11:54:27;8.17;;;5.00;;
20080;SDS011;10200;49.232;9.222;2023-02-21T12:27:31;7.50;;;4.43;;
20080;SDS011;10200;49.232;9.222;2023-02-21T12:30:24;9.43;;;5.07;;
20080;SDS011;10200;49.232;9.222;2023-02-21T12:36:14;9.77;;;5.70;;
20080;SDS011;10200;49.232;9.222;2023-02-21T12:47:31;10.03;;;5.73;;
20080;SDS011;10200;49.232;9.222;2023-02-21T12:52:51;11.13;;;5.33;;
20080;SDS011;10200;49.232;9.222;2023-02-21T12:55:29;8.73;;;5.10;;
20080;SDS011;10200;49.232;9.222;2023-02-21T13:01:04;7.47;;;4.70;;
20080;SDS011;10200;49.232;9.222;2023-02-21T13:06:37;7.40;;;4.50;;
20080;SDS011;10200;49.232;9.222;2023-02-21T13:09:58;6.43;;;4.60;;
20080;SDS011;10200;49.232;9.222;2023-02-21T13:12:13;8.80;;;5.40;;
20080;SDS011;10200;49.232;9.222;2023-02-21T13:17:12;10.40;;;5.27;;
20080;SDS011;10200;49.232;9.222;2023-02-21T13:19:46;10.37;;;5.60;;
20080;SDS011;10200;49.232;9.222;2023-02-21T13:28:33;8.73;;;4.73;;
20080;SDS011;10200;49.232;9.222;2023-02-21T13:31:01;14.70;;;5.40;;
20080;SDS011;10200;49.232;9.222;2023-02-21T13:33:42;7.77;;;4.27;;
20080;SDS011;10200;49.232;9.222;2023-02-21T13:36:27;5.63;;;4.30;;
20080;SDS011;10200;49.232;9.222;2023-02-21T13:39:10;9.87;;;4.63;;
20080;SDS011;10200;49.232;9.222;2023-02-21T13:44:09;7.50;;;4.40;;
20080;SDS011;10200;49.232;9.222;2023-02-21T13:57:47;8.30;;;4.10;;
20080;SDS011;10200;49.232;9.222;2023-02-21T14:08:26;5.97;;;4.63;;
20080;SDS011;10200;49.232;9.222;2023-02-21T14:10:55;9.03;;;4.97;;
20080;SDS011;10200;49.232;9.222;2023-02-21T14:16:24;11.87;;;4.80;;
20080;SDS011;10200;49.232;9.222;2023-02-21T14:18:57;6.73;;;4.30;;
20080;SDS011;10200;49.232;9.222;2023-02-21T14:21:31;8.70;;;4.60;;
20080;SDS011;10200;49.232;9.222;2023-02-21T14:24:12;6.50;;;3.90;;
20080;SDS011;10200;49.232;9.222;2023-02-21T14:34:36;7.00;;;4.30;;
20080;SDS011;10200;49.232;9.222;2023-02-21T14:37:04;8.40;;;4.03;;
20080;SDS011;10200;49.232;9.222;2023-02-21T14:39:54;10.63;;;5.23;;
20080;SDS011;10200;49.232;9.222;2023-02-21T15:08:16;7.60;;;4.20;;
20080;SDS011;10200;49.232;9.222;2023-02-21T15:10:43;6.30;;;4.00;;
20080;SDS011;10200;49.232;9.222;2023-02-21T15:13:21;8.30;;;4.47;;
20080;SDS011;10200;49.232;9.222;2023-02-21T15:15:58;7.90;;;4.07;;
20080;SDS011;10200;49.232;9.222;2023-02-21T15:18:31;6.00;;;4.30;;
20080;SDS011;10200;49.232;9.222;2023-02-21T15:23:37;9.03;;;4.47;;
20080;SDS011;10200;49.232;9.222;2023-02-21T15:28:42;9.20;;;3.97;;
20080;SDS011;10200;49.232;9.222;2023-02-21T15:31:08;9.73;;;4.70;;
20080;SDS011;10200;49.232;9.222;2023-02-21T15:33:37;10.93;;;4.20;;
20080;SDS011;10200;49.232;9.222;2023-02-21T15:36:06;6.43;;;3.90;;
20080;SDS011;10200;49.232;9.222;2023-02-21T15:41:07;6.33;;;3.80;;
20080;SDS011;10200;49.232;9.222;2023-02-21T15:46:37;9.13;;;4.37;;
20080;SDS011;10200;49.232;9.222;2023-02-21T15:49:18;5.37;;;3.50;;
20080;SDS011;10200;49.232;9.222;2023-02-21T15:51:49;8.00;;;4.43;;
20080;SDS011;10200;49.232;9.222;2023-02-21T15:56:41;5.90;;;3.63;;
20080;SDS011;10200;49.232;9.222;2023-02-21T15:59:11;6.17;;;3.67;;
20080;SDS011;10200;49.232;9.222;2023-02-21T16:01:44;10.63;;;4.30;;
20080;SDS011;10200;49.232;9.222;2023-02-21T16:04:34;9.30;;;5.37;;
20080;SDS011;10200;49.232;9.222;2023-02-21T16:07:00;9.40;;;4.27;;
20080;SDS011;10200;49.232;9.222;2023-02-21T16:09:28;8.60;;;3.90;;
20080;SDS011;10200;49.232;9.222;2023-02-21T16:11:56;8.23;;;4.20;;
20080;SDS011;10200;49.232;9.222;2023-02-21T16:20:07;7.47;;;4.23;;
20080;SDS011;10200;49.232;9.222;2023-02-21T16:22:41;9.70;;;4.50;;
20080;SDS011;10200;49.232;9.222;2023-02-21T16:27:38;9.50;;;6.03;;
20080;SDS011;10200;49.232;9.222;2023-02-21T16:30:05;9.40;;;4.60;;
20080;SDS011;10200;49.232;9.222;2023-02-21T16:32:35;8.87;;;4.57;;
20080;SDS011;10200;49.232;9.222;2023-02-21T16:35:03;9.77;;;5.23;;
20080;SDS011;10200;49.232;9.222;2023-02-21T16:37:29;10.67;;;4.43;;
20080;SDS011;10200;49.232;9.222;2023-02-21T16:39:56;9.03;;;4.10;;
20080;SDS011;10200;49.232;9.222;2023-02-21T16:42:21;12.90;;;4.80;;
20080;SDS011;10200;49.232;9.222;2023-02-21T16:44:47;8.90;;;4.23;;
20080;SDS011;10200;49.232;9.222;2023-02-21T16:47:14;7.00;;;3.70;;
20080;SDS011;10200;49.232;9.222;2023-02-21T16:49:40;5.67;;;3.60;;
20080;SDS011;10200;49.232;9.222;2023-02-21T16:52:11;9.13;;;4.37;;
20080;SDS011;10200;49.232;9.222;2023-02-21T16:54:38;10.73;;;4.77;;
20080;SDS011;10200;49.232;9.222;2023-02-21T16:57:04;10.83;;;4.80;;
20080;SDS011;10200;49.232;9.222;2023-02-21T16:59:30;8.00;;;3.77;;
20080;SDS011;10200;49.232;9.222;2023-02-21T17:01:55;8.33;;;3.57;;
20080;SDS011;10200;49.232;9.222;2023-02-21T17:04:22;5.50;;;3.80;;
20080;SDS011;10200;49.232;9.222;2023-02-21T17:06:55;9.13;;;3.93;;
20080;SDS011;10200;49.232;9.222;2023-02-21T17:09:26;10.37;;;4.03;;
20080;SDS011;10200;49.232;9.222;2023-02-21T17:11:53;8.33;;;4.83;;
20080;SDS011;10200;49.232;9.222;2023-02-21T17:14:19;7.43;;;4.10;;
20080;SDS011;10200;49.232;9.222;2023-02-21T17:16:45;6.43;;;4.33;;
20080;SDS011;10200;49.232;9.222;2023-02-21T17:19:12;7.70;;;5.53;;
20080;SDS011;10200;49.232;9.222;2023-02-21T17:21:42;10.23;;;5.53;;
20080;SDS011;10200;49.232;9.222;2023-02-21T17:24:08;8.73;;;4.40;;
20080;SDS011;10200;49.232;9.222;2023-02-21T17:26:36;5.40;;;4.53;;
20080;SDS011;10200;49.232;9.222;2023-02-21T17:29:02;6.33;;;3.90;;
20080;SDS011;10200;49.232;9.222;2023-02-21T17:31:29;6.40;;;3.17;;
20080;SDS011;10200;49.232;9.222;2023-02-21T17:33:55;8.80;;;3.80;;
20080;SDS011;10200;49.232;9.222;2023-02-21T17:36:22;5.90;;;3.37;;
20080;SDS011;10200;49.232;9.222;2023-02-21T17:38:49;8.27;;;4.37;;
20080;SDS011;10200;49.232;9.222;2023-02-21T17:41:15;7.20;;;4.53;;
20080;SDS011;10200;49.232;9.222;2023-02-21T17:43:41;12.03;;;6.83;;
20080;SDS011;10200;49.232;9.222;2023-02-21T17:46:14;8.40;;;3.83;;
20080;SDS011;10200;49.232;9.222;2023-02-21T17:48:42;8.73;;;3.63;;
20080;SDS011;10200;49.232;9.222;2023-02-21T17:51:44;6.53;;;3.40;;
20080;SDS011;10200;49.232;9.222;2023-02-21T17:54:20;5.17;;;3.60;;
20080;SDS011;10200;49.232;9.222;2023-02-21T17:56:47;7.53;;;3.20;;
20080;SDS011;10200;49.232;9.222;2023-02-21T17:59:14;7.63;;;4.27;;
20080;SDS011;10200;49.232;9.222;2023-02-21T18:01:40;7.40;;;3.97;;
20080;SDS011;10200;49.232;9.222;2023-02-21T18:04:06;6.70;;;3.97;;
20080;SDS011;10200;49.232;9.222;2023-02-21T18:06:33;5.93;;;3.67;;
20080;SDS011;10200;49.232;9.222;2023-02-21T18:08:58;11.90;;;4.57;;
20080;SDS011;10200;49.232;9.222;2023-02-21T18:11:24;11.03;;;5.07;;
20080;SDS011;10200;49.232;9.222;2023-02-21T18:13:50;9.07;;;5.07;;
20080;SDS011;10200;49.232;9.222;2023-02-21T18:16:17;6.57;;;4.33;;
20080;SDS011;10200;49.232;9.222;2023-02-21T18:18:42;9.90;;;5.53;;
20080;SDS011;10200;49.232;9.222;2023-02-21T18:21:09;9.53;;;4.27;;
20080;SDS011;10200;49.232;9.222;2023-02-21T18:23:35;10.77;;;5.10;;
20080;SDS011;10200;49.232;9.222;2023-02-21T18:26:02;8.40;;;4.97;;
20080;SDS011;10200;49.232;9.222;2023-02-21T18:28:29;7.10;;;5.00;;
20080;SDS011;10200;49.232;9.222;2023-02-21T18:30:55;8.47;;;5.30;;
20080;SDS011;10200;49.232;9.222;2023-02-21T18:33:22;9.47;;;5.73;;
20080;SDS011;10200;49.232;9.222;2023-02-21T18:35:51;12.27;;;5.93;;
20080;SDS011;10200;49.232;9.222;2023-02-21T18:38:18;17.80;;;7.70;;
20080;SDS011;10200;49.232;9.222;2023-02-21T18:40:43;14.77;;;8.73;;
20080;SDS011;10200;49.232;9.222;2023-02-21T18:43:13;20.03;;;10.70;;
20080;SDS011;10200;49.232;9.222;2023-02-21T18:45:46;22.00;;;14.00;;
20080;SDS011;10200;49.232;9.222;2023-02-21T18:48:13;19.13;;;13.03;;
20080;SDS011;10200;49.232;9.222;2023-02-21T18:50:39;24.37;;;13.23;;
20080;SDS011;10200;49.232;9.222;2023-02-21T18:53:05;22.20;;;12.80;;